Silverville, Indiana
Current Conditions -  °F | °C
As of 8:55 PM on Thursday 18 Dec 2014 (Local Time) from KDCY Reporting Station
Overcast Overcast  
Wind Chill: 30°   Ceiling: 5000
Heat Index: 30°   Visibility: 10mi
Dew Point: 23°   Wind: 3mph
Humidity: 75%   Direction: 360°N
Pressure: 30.27"   Gusts: NA
Location:  38.7478°N, 86.6215°W
Report Text: KDCY 190155Z AUTO 36003KT 10SM OVC050 M01/M05 A3027 RMK AO2 T10101050
Loading
Personal Weather Stations






























Interactive Weather Map New forecast layout! Learn more

10-Day Weather Forecast

Advertisements
Track Severe Weather on mobile